Time;durP1;ratioP1;P1;durP2;ratioP2;P2;SDS_P1;SDS_P2;PMS_P1;PMS_P2;Temp;Humidity;BMP_temperature;BMP_pressure;BME280_temperature;BME280_humidity;BME280_pressure;Samples;Min_cycle;Max_cycle;Signal;HPM_P1;HPM_P2
2023/03/25 00:00:52;;;;;;;13.45;5.05;;;5.70;99.90;;;;;;5067869;28;20106;-79
2023/03/25 00:03:23;;;;;;;6.20;4.15;;;5.60;99.90;;;;;;5070548;28;20048;-77
2023/03/25 00:05:50;;;;;;;6.90;4.13;;;5.60;99.90;;;;;;5069186;28;20049;-78
2023/03/25 00:08:18;;;;;;;9.02;4.40;;;5.60;99.90;;;;;;5051663;28;20053;-77
2023/03/25 00:10:45;;;;;;;7.60;3.78;;;5.60;99.90;;;;;;5051353;28;20453;-78
2023/03/25 00:13:13;;;;;;;7.22;4.88;;;5.60;99.90;;;;;;5069810;28;20055;-78
2023/03/25 00:15:44;;;;;;;12.75;4.63;;;5.60;99.90;;;;;;5067459;28;20102;-77
2023/03/25 00:18:12;;;;;;;11.60;4.43;;;5.60;99.90;;;;;;5068640;28;20052;-78
2023/03/25 00:20:44;;;;;;;9.30;4.50;;;5.60;99.90;;;;;;5065663;28;20041;-78
2023/03/25 00:23:12;;;;;;;5.57;3.55;;;5.60;99.90;;;;;;5069626;28;20060;-78
2023/03/25 00:25:40;;;;;;;5.38;3.20;;;5.70;99.90;;;;;;5069849;28;20045;-78
2023/03/25 00:28:08;;;;;;;10.00;3.15;;;5.70;99.90;;;;;;5051947;28;20052;-77
2023/03/25 00:30:37;;;;;;;7.47;3.08;;;5.70;99.90;;;;;;5068219;28;20056;-78
2023/03/25 00:33:05;;;;;;;5.38;3.17;;;5.70;99.90;;;;;;5067703;28;20040;-78
2023/03/25 00:35:32;;;;;;;5.60;2.70;;;5.80;99.90;;;;;;5085613;28;20044;-78
2023/03/25 00:38:01;;;;;;;4.05;2.50;;;5.80;99.90;;;;;;5079393;28;20137;-78
2023/03/25 00:40:33;;;;;;;3.47;2.28;;;5.80;99.90;;;;;;5069787;28;20090;-78
2023/03/25 00:43:02;;;;;;;7.85;1.75;;;5.80;99.90;;;;;;5069135;28;20052;-78
2023/03/25 00:45:30;;;;;;;7.03;3.35;;;5.90;99.90;;;;;;5052274;28;20040;-78
2023/03/25 00:47:58;;;;;;;5.25;2.17;;;5.90;99.90;;;;;;5064871;28;20087;-78
2023/03/25 00:50:26;;;;;;;5.88;2.38;;;6.00;99.90;;;;;;5060063;28;20048;-78
2023/03/25 00:52:54;;;;;;;2.08;1.70;;;6.00;99.90;;;;;;5042494;28;20049;-78
2023/03/25 00:55:23;;;;;;;3.13;1.80;;;6.10;99.90;;;;;;5068865;28;20144;-78
2023/03/25 00:57:50;;;;;;;3.58;1.90;;;6.20;99.90;;;;;;5063916;28;20044;-77
2023/03/25 01:00:19;;;;;;;1.60;1.50;;;6.30;99.90;;;;;;5067851;28;20046;-78
2023/03/25 01:02:52;;;;;;;2.42;1.50;;;6.30;99.90;;;;;;5070176;28;20610;-78
2023/03/25 01:05:21;;;;;;;2.83;1.58;;;6.40;99.90;;;;;;5051765;28;20048;-78
2023/03/25 01:07:50;;;;;;;3.38;1.52;;;6.50;99.90;;;;;;5048843;28;20107;-78
2023/03/25 01:10:18;;;;;;;3.35;1.60;;;6.60;99.90;;;;;;5044089;28;20036;-78
2023/03/25 01:12:48;;;;;;;1.95;1.60;;;6.60;99.90;;;;;;5062081;28;20048;-79
2023/03/25 01:15:16;;;;;;;3.42;1.80;;;6.70;99.90;;;;;;5034636;28;20053;-79
2023/03/25 01:17:43;;;;;;;3.15;2.13;;;6.80;99.90;;;;;;5032940;28;20139;-78
2023/03/25 01:20:11;;;;;;;4.78;1.77;;;6.80;99.90;;;;;;5069783;28;20048;-79
2023/03/25 01:22:39;;;;;;;1.85;1.67;;;6.80;99.90;;;;;;5070049;28;20044;-80
2023/03/25 01:25:08;;;;;;;4.03;1.75;;;6.90;99.90;;;;;;5066980;28;20044;-79
2023/03/25 01:27:35;;;;;;;2.72;1.77;;;6.90;99.90;;;;;;5049852;28;20142;-80
2023/03/25 01:30:07;;;;;;;3.03;1.52;;;6.90;99.90;;;;;;5051788;28;20044;-80
2023/03/25 01:32:34;;;;;;;1.85;1.65;;;7.00;99.90;;;;;;5050933;28;20054;-80
2023/03/25 01:35:03;;;;;;;2.85;1.90;;;7.00;99.90;;;;;;5073326;28;20044;-80
2023/03/25 01:37:32;;;;;;;3.42;1.48;;;7.10;99.90;;;;;;5072749;28;20409;-79
2023/03/25 01:40:00;;;;;;;3.08;1.83;;;7.10;99.90;;;;;;5055685;28;20532;-80
2023/03/25 01:42:28;;;;;;;2.10;1.90;;;7.20;99.90;;;;;;5052501;28;20076;-79
2023/03/25 01:45:25;;;;;;;4.78;1.80;;;7.30;99.90;;;;;;5054459;28;20044;-79
2023/03/25 01:48:01;;;;;;;5.15;2.00;;;7.30;99.90;;;;;;5073549;28;20151;-79
2023/03/25 01:50:31;;;;;;;4.50;2.08;;;7.40;99.90;;;;;;5055625;28;20045;-79
2023/03/25 01:53:02;;;;;;;2.95;2.08;;;7.40;99.90;;;;;;5069249;28;20062;-80
2023/03/25 01:55:32;;;;;;;3.22;2.88;;;7.40;99.90;;;;;;5067702;28;20529;-79
2023/03/25 01:58:03;;;;;;;5.97;2.70;;;7.50;99.90;;;;;;5070257;28;20138;-78
2023/03/25 02:00:32;;;;;;;4.18;3.22;;;7.50;99.90;;;;;;5049755;28;20045;-78
2023/03/25 02:03:02;;;;;;;5.47;3.40;;;7.50;99.90;;;;;;5058349;28;20036;-78
2023/03/25 02:05:38;;;;;;;8.68;4.63;;;7.50;99.90;;;;;;5071411;28;20048;-79
2023/03/25 02:08:09;;;;;;;5.72;4.15;;;7.50;99.90;;;;;;5070251;28;20098;-79
2023/03/25 02:10:37;;;;;;;6.63;4.03;;;7.60;99.90;;;;;;5037812;28;20095;-79
2023/03/25 02:13:07;;;;;;;5.55;4.32;;;7.60;99.90;;;;;;5071109;28;20102;-79
2023/03/25 02:15:52;;;;;;;6.53;3.63;;;7.60;99.90;;;;;;5072268;28;20044;-78
2023/03/25 02:18:44;;;;;;;5.53;3.70;;;7.60;99.90;;;;;;5065950;28;20474;-79
2023/03/25 02:22:00;;;;;;;3.95;3.00;;;7.70;99.90;;;;;;5071315;28;20452;-78
2023/03/25 02:25:34;;;;;;;5.85;3.33;;;7.80;99.90;;;;;;5053489;28;20061;-79
2023/03/25 02:28:10;;;;;;;5.72;4.25;;;7.80;99.90;;;;;;5015710;28;20132;-78
2023/03/25 02:31:17;;;;;;;4.35;3.33;;;7.80;99.90;;;;;;5028219;28;20518;-78
2023/03/25 02:34:30;;;;;;;10.25;3.42;;;7.80;99.90;;;;;;5077366;28;20499;-79
2023/03/25 02:37:57;;;;;;;3.78;2.80;;;7.80;99.90;;;;;;5046326;28;20072;-78
2023/03/25 02:40:34;;;;;;;3.45;3.15;;;7.90;99.90;;;;;;5043549;28;20148;-78
2023/03/25 02:43:07;;;;;;;6.53;3.17;;;7.90;99.90;;;;;;5056014;28;20048;-78
2023/03/25 02:45:44;;;;;;;3.30;2.97;;;7.90;99.90;;;;;;5037193;28;20591;-78
2023/03/25 02:48:18;;;;;;;3.75;2.83;;;8.00;99.90;;;;;;5047043;28;20049;-78
2023/03/25 02:50:51;;;;;;;6.05;3.15;;;8.00;99.90;;;;;;5053066;28;20526;-78
2023/03/25 02:53:26;;;;;;;4.72;3.60;;;8.00;99.90;;;;;;5050934;28;20056;-77
2023/03/25 02:56:00;;;;;;;3.33;3.03;;;8.00;99.90;;;;;;5044408;28;20535;-78
2023/03/25 02:58:29;;;;;;;3.20;2.90;;;8.00;99.90;;;;;;5050489;28;20060;-78
2023/03/25 03:01:13;;;;;;;3.33;3.03;;;7.90;99.90;;;;;;5052711;28;20463;-78
2023/03/25 03:03:49;;;;;;;4.37;3.13;;;7.90;99.90;;;;;;5077227;28;20540;-79
2023/03/25 03:06:19;;;;;;;3.80;3.40;;;7.90;99.90;;;;;;5041320;28;20045;-78
2023/03/25 03:09:11;;;;;;;3.30;3.10;;;7.90;99.90;;;;;;5035892;28;20118;-78
2023/03/25 03:11:51;;;;;;;3.17;2.80;;;7.90;99.90;;;;;;5071449;28;20053;-78
2023/03/25 03:14:37;;;;;;;3.20;2.90;;;7.90;99.90;;;;;;5071965;28;20513;-80
2023/03/25 03:17:13;;;;;;;3.58;3.28;;;7.90;99.90;;;;;;5071424;28;20052;-79
2023/03/25 03:19:46;;;;;;;2.92;2.60;;;7.90;99.90;;;;;;5031203;28;20647;-79
2023/03/25 03:22:28;;;;;;;3.38;3.08;;;7.80;99.90;;;;;;5040930;28;20061;-78
2023/03/25 03:25:02;;;;;;;3.72;3.13;;;7.80;99.90;;;;;;5034543;28;20090;-78
2023/03/25 03:27:36;;;;;;;4.15;3.17;;;7.70;99.90;;;;;;5043500;28;20074;-78
2023/03/25 03:30:10;;;;;;;4.93;2.58;;;7.70;99.90;;;;;;5069003;28;20052;-78
2023/03/25 03:32:42;;;;;;;3.70;2.85;;;7.60;99.90;;;;;;5069576;28;20397;-78
2023/03/25 03:35:17;;;;;;;3.35;3.05;;;7.60;99.90;;;;;;5070731;28;20575;-78
2023/03/25 03:37:51;;;;;;;4.40;3.20;;;7.50;99.90;;;;;;5069989;28;20405;-78
2023/03/25 03:40:22;;;;;;;3.45;2.80;;;7.40;99.90;;;;;;5051656;28;20048;-78
2023/03/25 03:43:00;;;;;;;4.10;3.47;;;7.30;99.90;;;;;;5069666;28;20098;-79
2023/03/25 03:45:34;;;;;;;7.78;3.50;;;7.30;99.90;;;;;;5053368;28;20097;-78
2023/03/25 03:48:07;;;;;;;4.07;3.70;;;7.30;99.90;;;;;;5048756;28;20037;-78
2023/03/25 03:50:42;;;;;;;4.97;3.58;;;7.30;99.90;;;;;;5070732;28;20072;-78
2023/03/25 03:53:16;;;;;;;4.53;3.40;;;7.30;99.90;;;;;;5069258;28;20049;-78
2023/03/25 03:55:50;;;;;;;4.22;3.50;;;7.30;99.90;;;;;;5069773;28;20090;-78
2023/03/25 03:58:24;;;;;;;4.43;3.00;;;7.30;99.90;;;;;;5047723;28;20425;-78
2023/03/25 04:01:01;;;;;;;3.30;3.00;;;7.30;99.90;;;;;;5051143;28;20044;-77
2023/03/25 04:03:37;;;;;;;2.83;2.63;;;7.40;99.90;;;;;;5035068;28;20436;-78
2023/03/25 04:06:16;;;;;;;3.45;3.03;;;7.50;99.90;;;;;;5070579;28;20951;-78
2023/03/25 04:08:57;;;;;;;3.03;2.83;;;7.50;99.90;;;;;;5069320;28;20107;-78
2023/03/25 04:11:30;;;;;;;4.50;2.88;;;7.50;99.90;;;;;;5049638;28;20049;-78
2023/03/25 04:14:02;;;;;;;3.72;2.90;;;7.50;99.90;;;;;;5044749;28;20045;-77
2023/03/25 04:16:31;;;;;;;3.10;2.80;;;7.40;99.90;;;;;;5052593;28;20052;-78
2023/03/25 04:18:58;;;;;;;3.97;2.67;;;7.50;99.90;;;;;;5067343;28;20306;-78
2023/03/25 04:21:28;;;;;;;4.60;2.63;;;7.50;99.90;;;;;;5070075;28;20059;-78
2023/03/25 04:24:00;;;;;;;2.40;2.17;;;7.50;99.90;;;;;;5046985;28;20119;-77
2023/03/25 04:26:32;;;;;;;2.63;2.38;;;7.40;99.90;;;;;;5065315;28;20056;-77
2023/03/25 04:29:02;;;;;;;2.42;2.22;;;7.40;99.90;;;;;;5070422;28;20057;-79
2023/03/25 04:31:31;;;;;;;4.10;2.35;;;7.40;99.90;;;;;;5053401;28;20072;-77
2023/03/25 04:34:01;;;;;;;2.00;1.80;;;7.40;99.90;;;;;;5066330;28;20048;-77
2023/03/25 04:36:32;;;;;;;4.07;2.65;;;7.40;99.90;;;;;;5036329;28;20495;-78
2023/03/25 04:39:00;;;;;;;4.70;2.30;;;7.40;99.90;;;;;;5070914;28;20048;-78
2023/03/25 04:41:27;;;;;;;2.33;1.90;;;7.40;99.90;;;;;;5050853;28;20281;-78
2023/03/25 04:43:55;;;;;;;3.38;1.98;;;7.40;99.90;;;;;;5068768;28;20114;-77
2023/03/25 04:46:23;;;;;;;4.45;2.80;;;7.40;99.90;;;;;;5065365;28;20405;-78
2023/03/25 04:48:52;;;;;;;4.13;1.92;;;7.40;99.90;;;;;;5059064;28;20060;-78
2023/03/25 04:51:22;;;;;;;2.95;2.15;;;7.40;99.90;;;;;;5069736;28;20048;-79
2023/03/25 04:53:49;;;;;;;5.65;2.50;;;7.50;99.90;;;;;;5067965;28;20049;-79
2023/03/25 04:56:18;;;;;;;5.07;2.20;;;7.50;99.90;;;;;;5067434;28;20050;-78
2023/03/25 04:58:46;;;;;;;4.93;1.50;;;7.60;99.90;;;;;;5069570;28;20048;-78
2023/03/25 05:01:29;;;;;;;4.70;1.60;;;7.60;99.90;;;;;;5067242;28;20040;-79
2023/03/25 05:04:04;;;;;;;6.63;2.33;;;7.60;99.90;;;;;;5067139;28;20101;-78
2023/03/25 05:06:33;;;;;;;2.22;1.67;;;7.60;99.90;;;;;;5059915;28;20502;-78
2023/03/25 05:09:02;;;;;;;3.15;2.08;;;7.60;99.90;;;;;;5051426;28;20049;-79
2023/03/25 05:11:32;;;;;;;4.90;2.35;;;7.70;99.90;;;;;;5034806;28;20213;-78
2023/03/25 05:14:00;;;;;;;2.85;1.95;;;7.70;99.90;;;;;;5069452;28;20044;-79
2023/03/25 05:16:30;;;;;;;3.90;2.03;;;7.70;99.90;;;;;;5069454;28;20127;-79
2023/03/25 05:18:58;;;;;;;4.53;1.98;;;7.70;99.90;;;;;;5051364;28;20453;-79
2023/03/25 05:21:26;;;;;;;5.97;2.53;;;7.70;99.90;;;;;;5068314;28;20068;-78
2023/03/25 05:23:53;;;;;;;2.92;1.88;;;7.70;99.90;;;;;;5068163;28;20163;-80
2023/03/25 05:26:21;;;;;;;8.70;3.00;;;7.70;99.90;;;;;;5068906;28;20051;-77
2023/03/25 05:28:50;;;;;;;5.60;2.47;;;7.70;99.90;;;;;;5051136;28;20493;-79
2023/03/25 05:31:17;;;;;;;4.70;2.97;;;7.70;99.90;;;;;;5067762;28;20049;-79
2023/03/25 05:33:46;;;;;;;3.42;2.00;;;7.70;99.90;;;;;;5067197;28;20041;-78
2023/03/25 05:36:15;;;;;;;5.00;2.60;;;7.80;99.90;;;;;;5065643;28;20122;-79
2023/03/25 05:38:44;;;;;;;7.18;2.28;;;7.70;99.90;;;;;;5084554;28;20076;-80
2023/03/25 05:41:15;;;;;;;3.75;2.08;;;7.70;99.90;;;;;;5052928;28;20049;-80
2023/03/25 05:43:45;;;;;;;6.90;2.17;;;7.80;99.90;;;;;;5063641;28;20055;-80
2023/03/25 05:46:14;;;;;;;3.75;2.05;;;7.80;99.90;;;;;;5068632;28;20057;-79
2023/03/25 05:48:42;;;;;;;6.45;1.90;;;7.90;99.90;;;;;;5068651;28;20045;-78
2023/03/25 05:51:15;;;;;;;6.63;2.35;;;7.90;99.90;;;;;;5068672;28;20055;-78
2023/03/25 05:53:43;;;;;;;4.93;2.40;;;7.90;99.90;;;;;;5050837;28;20417;-78
2023/03/25 05:56:11;;;;;;;4.95;1.75;;;7.90;99.90;;;;;;5055277;28;20097;-78
2023/03/25 05:58:42;;;;;;;5.53;2.42;;;8.00;99.90;;;;;;5068387;28;20493;-79
2023/03/25 06:01:12;;;;;;;6.45;2.25;;;8.00;99.90;;;;;;5068103;28;20689;-79
2023/03/25 06:03:40;;;;;;;6.05;2.17;;;8.00;99.90;;;;;;5056239;28;20048;-78
2023/03/25 06:06:12;;;;;;;3.55;1.70;;;8.00;99.90;;;;;;5046571;28;20049;-78
2023/03/25 06:08:42;;;;;;;7.00;1.80;;;8.00;99.90;;;;;;5050307;28;20052;-78
2023/03/25 06:11:12;;;;;;;6.28;1.85;;;8.10;99.90;;;;;;5066275;28;20135;-78
2023/03/25 06:13:41;;;;;;;4.05;2.03;;;8.10;99.90;;;;;;5069559;28;20045;-79
2023/03/25 06:16:09;;;;;;;6.30;2.15;;;8.10;99.90;;;;;;5050281;28;20131;-78
2023/03/25 06:18:37;;;;;;;6.93;1.92;;;8.10;99.90;;;;;;5034512;28;20040;-78
2023/03/25 06:21:05;;;;;;;5.57;1.60;;;8.20;99.90;;;;;;5070653;28;20063;-77
2023/03/25 06:23:34;;;;;;;4.75;1.90;;;8.10;99.90;;;;;;5066790;28;20049;-78
2023/03/25 06:26:07;;;;;;;5.03;1.83;;;8.20;99.90;;;;;;5067984;28;20075;-78
2023/03/25 06:28:35;;;;;;;4.80;2.00;;;8.10;99.90;;;;;;5079340;28;20052;-78
2023/03/25 06:31:07;;;;;;;4.32;1.65;;;8.10;99.90;;;;;;5066064;28;20501;-79
2023/03/25 06:33:35;;;;;;;7.80;1.90;;;8.20;99.90;;;;;;5048269;28;20527;-78
2023/03/25 06:36:07;;;;;;;7.38;1.70;;;8.10;99.90;;;;;;5051993;28;20417;-79
2023/03/25 06:38:34;;;;;;;3.88;1.67;;;8.10;99.90;;;;;;5070950;28;20531;-79
2023/03/25 06:41:16;;;;;;;5.15;2.05;;;8.10;99.90;;;;;;5052338;28;20044;-79
2023/03/25 06:43:44;;;;;;;11.88;2.83;;;8.10;99.90;;;;;;5052996;28;20052;-77
2023/03/25 06:46:35;;;;;;;4.78;1.60;;;8.20;99.90;;;;;;5065351;28;20055;-79
2023/03/25 06:49:03;;;;;;;6.22;1.55;;;8.20;99.90;;;;;;5072940;28;20056;-76
2023/03/25 06:51:30;;;;;;;4.80;1.60;;;8.20;99.90;;;;;;5070150;28;20052;-78
2023/03/25 06:53:58;;;;;;;3.97;1.60;;;8.30;99.90;;;;;;5071131;28;20536;-78
2023/03/25 06:56:30;;;;;;;4.50;1.30;;;8.30;99.90;;;;;;5070293;28;20135;-79
2023/03/25 06:58:57;;;;;;;4.50;1.60;;;8.20;99.90;;;;;;5069741;28;20067;-77
2023/03/25 07:01:25;;;;;;;6.30;2.55;;;8.20;99.90;;;;;;5063210;28;20502;-78
2023/03/25 07:03:57;;;;;;;6.78;1.80;;;8.10;99.90;;;;;;5050715;28;20444;-78
2023/03/25 07:06:27;;;;;;;9.27;2.47;;;8.20;99.90;;;;;;5068088;28;20040;-77
2023/03/25 07:08:58;;;;;;;7.53;2.22;;;8.30;99.90;;;;;;5067478;28;20044;-76
2023/03/25 07:11:34;;;;;;;8.77;2.22;;;8.40;99.90;;;;;;5061083;28;20056;-76
2023/03/25 07:14:01;;;;;;;5.45;1.85;;;8.40;99.90;;;;;;5068353;28;20045;-77
2023/03/25 07:16:32;;;;;;;7.72;2.20;;;8.50;99.90;;;;;;5074162;28;20043;-76
2023/03/25 07:19:01;;;;;;;5.43;1.98;;;8.40;99.90;;;;;;5073895;28;20127;-78
2023/03/25 07:21:32;;;;;;;4.97;1.77;;;8.40;99.90;;;;;;5073499;28;20090;-77
2023/03/25 07:24:03;;;;;;;9.63;2.22;;;8.40;99.90;;;;;;5072149;28;20056;-76
2023/03/25 07:26:36;;;;;;;4.43;1.42;;;8.40;99.90;;;;;;5047735;28;20619;-77
2023/03/25 07:29:06;;;;;;;4.75;1.50;;;8.50;99.90;;;;;;5027411;28;20075;-78
2023/03/25 07:31:33;;;;;;;4.68;1.67;;;8.70;99.90;;;;;;5060164;28;20060;-79
2023/03/25 07:34:06;;;;;;;2.72;1.67;;;8.80;99.90;;;;;;5062220;28;20036;-79
2023/03/25 07:36:34;;;;;;;4.97;1.63;;;9.00;99.90;;;;;;5045473;28;20048;-79
2023/03/25 07:39:01;;;;;;;7.47;2.15;;;9.10;99.90;;;;;;5067849;28;20033;-79
2023/03/25 07:41:30;;;;;;;6.70;1.83;;;9.20;99.90;;;;;;5048709;28;20052;-78
2023/03/25 07:44:11;;;;;;;6.22;1.92;;;9.20;99.90;;;;;;5055078;28;20416;-79
2023/03/25 07:46:39;;;;;;;7.72;1.98;;;9.20;99.90;;;;;;5046791;28;20049;-80
2023/03/25 07:49:07;;;;;;;8.75;3.22;;;9.10;99.90;;;;;;5062011;28;20045;-78
2023/03/25 07:51:35;;;;;;;7.60;2.90;;;8.90;99.90;;;;;;5051440;28;20056;-78
2023/03/25 07:54:02;;;;;;;9.07;3.17;;;8.70;99.90;;;;;;5052200;28;20127;-78
2023/03/25 07:56:33;;;;;;;5.55;2.80;;;8.60;99.90;;;;;;5035364;28;20140;-78
2023/03/25 07:59:01;;;;;;;7.60;2.45;;;8.60;99.90;;;;;;5049729;28;20043;-78
2023/03/25 08:01:28;;;;;;;10.10;2.60;;;8.50;99.90;;;;;;5065897;28;20152;-78
2023/03/25 08:03:56;;;;;;;5.47;2.03;;;8.40;99.90;;;;;;5067072;28;20131;-79
2023/03/25 08:06:25;;;;;;;4.88;3.17;;;8.40;99.90;;;;;;5067028;28;20060;-79
2023/03/25 08:08:54;;;;;;;7.65;1.98;;;8.40;99.90;;;;;;5070187;28;20047;-78
2023/03/25 08:11:22;;;;;;;6.35;1.67;;;8.40;99.90;;;;;;5076037;28;20058;-80
2023/03/25 08:13:53;;;;;;;6.03;2.10;;;8.40;99.90;;;;;;5059448;28;20047;-78
2023/03/25 08:16:20;;;;;;;8.63;2.70;;;8.40;99.90;;;;;;5063879;28;20135;-78
2023/03/25 08:18:51;;;;;;;8.38;2.55;;;8.40;99.90;;;;;;5066977;28;20053;-77
2023/03/25 08:21:23;;;;;;;7.57;2.22;;;8.40;99.90;;;;;;5061444;28;20409;-78
2023/03/25 08:23:53;;;;;;;8.00;1.90;;;8.40;99.90;;;;;;5065937;28;20052;-80
2023/03/25 08:26:21;;;;;;;6.03;2.10;;;8.30;99.90;;;;;;5065721;28;20061;-79
2023/03/25 08:28:50;;;;;;;6.07;2.30;;;8.10;99.90;;;;;;5050580;28;20122;-78
2023/03/25 08:31:19;;;;;;;6.50;1.88;;;8.10;99.90;;;;;;5068798;28;20398;-80
2023/03/25 08:33:46;;;;;;;5.03;1.80;;;8.00;99.90;;;;;;5067724;28;20094;-80
2023/03/25 08:36:22;;;;;;;4.75;1.45;;;8.00;99.90;;;;;;5071227;28;20520;-80
2023/03/25 08:38:50;;;;;;;7.00;1.67;;;8.00;99.90;;;;;;5069792;28;20161;-80
2023/03/25 08:41:18;;;;;;;3.45;1.23;;;7.90;99.90;;;;;;5078398;28;20048;-80
2023/03/25 08:43:46;;;;;;;5.32;1.98;;;7.90;99.90;;;;;;5070291;28;20574;-79
2023/03/25 08:46:21;;;;;;;4.22;1.45;;;7.90;99.90;;;;;;5068952;28;20040;-79
2023/03/25 08:48:49;;;;;;;7.43;2.45;;;7.90;99.90;;;;;;5049359;28;20041;-79
2023/03/25 08:51:17;;;;;;;14.85;5.38;;;7.80;99.90;;;;;;5063896;28;20141;-82
2023/03/25 08:53:44;;;;;;;4.20;1.75;;;7.70;99.90;;;;;;5067997;28;20045;-76
2023/03/25 08:56:17;;;;;;;6.35;1.95;;;7.60;99.90;;;;;;5070113;28;20088;-77
2023/03/25 08:58:45;;;;;;;7.68;2.17;;;7.50;99.90;;;;;;5050889;28;20048;-79
2023/03/25 09:01:15;;;;;;;13.35;3.33;;;7.30;99.90;;;;;;5066252;28;20045;-82
2023/03/25 09:03:42;;;;;;;5.70;2.45;;;7.30;99.90;;;;;;5067538;28;20118;-80
2023/03/25 09:06:10;;;;;;;9.38;2.50;;;7.20;99.90;;;;;;5035105;28;20044;-80
2023/03/25 09:08:38;;;;;;;6.82;1.90;;;7.20;99.90;;;;;;5068234;28;20052;-81
2023/03/25 09:11:06;;;;;;;6.55;2.95;;;7.00;99.90;;;;;;5069533;28;20060;-79
2023/03/25 09:13:39;;;;;;;6.13;2.33;;;7.00;99.90;;;;;;5067062;28;20057;-80
2023/03/25 09:16:09;;;;;;;3.88;2.10;;;7.00;99.90;;;;;;5070460;28;20045;-76
2023/03/25 09:18:38;;;;;;;5.65;2.67;;;7.00;99.90;;;;;;5071787;28;20056;-79
2023/03/25 09:21:07;;;;;;;5.25;1.83;;;7.00;99.90;;;;;;5045877;28;20771;-79
2023/03/25 09:23:42;;;;;;;4.10;1.42;;;7.00;99.90;;;;;;5063214;28;20469;-78
2023/03/25 09:26:10;;;;;;;6.68;1.70;;;7.10;99.90;;;;;;5068115;28;20139;-81
2023/03/25 09:28:39;;;;;;;4.18;2.47;;;7.20;99.90;;;;;;5033164;28;20040;-75
2023/03/25 09:31:08;;;;;;;7.53;2.28;;;7.20;99.90;;;;;;5079002;28;20079;-76
2023/03/25 09:33:38;;;;;;;7.65;2.85;;;7.20;99.90;;;;;;5081397;28;20056;-76
2023/03/25 09:36:06;;;;;;;11.05;3.78;;;7.20;99.90;;;;;;5063232;28;20121;-77
2023/03/25 09:38:34;;;;;;;8.63;1.75;;;7.20;99.90;;;;;;5071201;28;20080;-76
2023/03/25 09:41:21;;;;;;;7.25;1.90;;;7.10;99.90;;;;;;5065212;28;20480;-76
2023/03/25 09:44:02;;;;;;;4.20;1.85;;;7.00;99.90;;;;;;5052248;28;20057;-76
2023/03/25 09:46:30;;;;;;;4.60;1.65;;;7.00;99.90;;;;;;5068785;28;20113;-76
2023/03/25 09:49:00;;;;;;;8.90;1.70;;;6.90;99.90;;;;;;5049206;28;20041;-76
2023/03/25 09:51:34;;;;;;;2.55;1.05;;;6.90;99.90;;;;;;5065650;28;20484;-76
2023/03/25 09:54:10;;;;;;;5.55;1.50;;;6.80;99.90;;;;;;5054412;28;20048;-76
2023/03/25 09:56:42;;;;;;;6.75;2.28;;;6.70;99.90;;;;;;5065809;28;20048;-77
2023/03/25 09:59:14;;;;;;;6.78;1.00;;;6.70;99.90;;;;;;5039940;28;20065;-76
2023/03/25 10:01:53;;;;;;;5.20;1.00;;;6.60;99.90;;;;;;5061672;28;20053;-75
2023/03/25 10:05:13;;;;;;;1.88;1.17;;;6.40;99.90;;;;;;5089428;28;20064;-80
2023/03/25 10:07:56;;;;;;;3.75;1.02;;;6.30;99.90;;;;;;5069091;28;20143;-75
2023/03/25 10:10:31;;;;;;;1.00;0.70;;;6.30;99.90;;;;;;5072446;28;20131;-79
2023/03/25 10:13:12;;;;;;;3.35;1.25;;;6.40;99.90;;;;;;5071080;28;20056;-80
2023/03/25 10:15:51;;;;;;;6.68;0.98;;;6.40;99.90;;;;;;5036960;28;20041;-75
2023/03/25 10:18:44;;;;;;;1.13;0.70;;;6.40;99.90;;;;;;5072149;28;20524;-77
2023/03/25 10:21:19;;;;;;;0.60;0.50;;;6.40;99.90;;;;;;5063004;28;20564;-77
2023/03/25 10:23:57;;;;;;;1.00;0.70;;;6.50;99.90;;;;;;5061861;28;20053;-78
2023/03/25 10:26:29;;;;;;;4.15;0.68;;;6.50;99.90;;;;;;5064374;28;20055;-77
2023/03/25 10:29:03;;;;;;;2.65;0.82;;;6.40;99.90;;;;;;5065431;28;20390;-76
2023/03/25 10:31:53;;;;;;;1.50;0.30;;;6.30;99.90;;;;;;5076174;28;20060;-75
2023/03/25 10:34:33;;;;;;;0.30;0.20;;;6.30;99.90;;;;;;5045608;28;20066;-76
2023/03/25 10:37:09;;;;;;;1.13;0.60;;;6.10;99.90;;;;;;5069013;28;20048;-74
2023/03/25 10:39:44;;;;;;;5.13;0.60;;;6.00;99.90;;;;;;5070045;28;20052;-76
2023/03/25 10:42:24;;;;;;;0.90;0.47;;;5.90;99.90;;;;;;5037576;28;20067;-77
2023/03/25 10:44:54;;;;;;;3.00;0.35;;;5.90;99.90;;;;;;5072629;28;20055;-76
2023/03/25 10:47:28;;;;;;;2.92;0.35;;;5.90;99.90;;;;;;5046814;28;20425;-75
2023/03/25 10:49:58;;;;;;;0.82;0.40;;;5.80;99.90;;;;;;5078526;28;20063;-76
2023/03/25 10:52:28;;;;;;;0.52;0.35;;;5.70;99.90;;;;;;5073525;28;20138;-75
2023/03/25 10:54:58;;;;;;;0.73;0.40;;;5.60;99.90;;;;;;5056217;28;20064;-77
2023/03/25 10:57:29;;;;;;;1.30;0.60;;;5.60;99.90;;;;;;5070877;28;20513;-79
2023/03/25 11:00:17;;;;;;;0.43;0.40;;;5.60;99.90;;;;;;5073740;28;20044;-78
2023/03/25 11:02:46;;;;;;;0.70;0.63;;;5.60;99.90;;;;;;5052334;28;20075;-78
2023/03/25 11:05:21;;;;;;;0.57;0.40;;;5.50;99.90;;;;;;5070004;28;20102;-78
2023/03/25 11:08:24;;;;;;;0.80;0.50;;;5.40;99.90;;;;;;5046986;28;20052;-76
2023/03/25 11:11:17;;;;;;;0.98;0.52;;;5.30;99.90;;;;;;5056412;28;20046;-77
2023/03/25 11:13:57;;;;;;;3.05;0.52;;;5.30;99.90;;;;;;5040539;28;20510;-76
2023/03/25 11:16:41;;;;;;;1.85;0.60;;;5.30;99.90;;;;;;5037943;28;20045;-77
2023/03/25 11:19:25;;;;;;;2.22;0.82;;;5.20;99.90;;;;;;5048528;28;20394;-75
2023/03/25 11:22:05;;;;;;;1.40;0.77;;;5.10;99.90;;;;;;5050857;28;20514;-77
2023/03/25 11:24:48;;;;;;;0.60;0.60;;;5.10;99.90;;;;;;5049221;28;20060;-76
2023/03/25 11:27:27;;;;;;;1.00;0.80;;;5.20;99.90;;;;;;5069594;28;20535;-75
2023/03/25 11:40:56;;;;;;;3.47;1.17;;;5.10;99.90;;;;;;5047338;28;20395;-76
2023/03/25 11:43:36;;;;;;;2.88;1.23;;;5.30;99.90;;;;;;5020245;28;20104;-75
2023/03/25 11:46:15;;;;;;;2.35;1.63;;;5.30;99.90;;;;;;5022856;28;20037;-78
2023/03/25 11:49:15;;;;;;;5.70;1.58;;;5.30;99.90;;;;;;5005523;28;20108;-77
2023/03/25 11:51:46;;;;;;;1.40;1.15;;;5.30;99.90;;;;;;5027531;28;20080;-84
2023/03/25 11:54:19;;;;;;;1.40;1.30;;;5.20;99.90;;;;;;5043694;28;20493;-76
2023/03/25 11:56:50;;;;;;;1.38;1.00;;;5.20;99.90;;;;;;5027442;28;20081;-75
2023/03/25 11:59:24;;;;;;;2.40;0.95;;;5.20;99.90;;;;;;5022116;28;20049;-78
2023/03/25 12:02:01;;;;;;;1.67;1.23;;;5.10;99.90;;;;;;5016652;28;20061;-79
2023/03/25 12:04:30;;;;;;;1.75;0.95;;;5.10;99.90;;;;;;5023874;28;20477;-76
2023/03/25 12:07:06;;;;;;;0.60;0.50;;;5.10;99.90;;;;;;5026981;28;20413;-77
2023/03/25 12:09:33;;;;;;;1.00;0.60;;;5.00;99.90;;;;;;5013577;28;20510;-80
2023/03/25 12:12:32;;;;;;;0.50;0.50;;;5.00;99.90;;;;;;5018626;28;20042;-78
2023/03/25 12:15:12;;;;;;;0.95;0.50;;;5.10;99.90;;;;;;5020885;28;20084;-77
2023/03/25 12:17:57;;;;;;;1.67;0.38;;;5.00;99.90;;;;;;5013707;28;20038;-74
2023/03/25 12:20:33;;;;;;;1.23;0.38;;;4.90;99.90;;;;;;5024718;28;20050;-76
2023/03/25 12:23:03;;;;;;;1.70;0.57;;;4.90;99.90;;;;;;5014086;28;20042;-77
2023/03/25 12:25:42;;;;;;;1.73;0.40;;;4.80;99.90;;;;;;5023723;28;20054;-76
2023/03/25 12:28:47;;;;;;;2.25;0.68;;;4.80;99.90;;;;;;5025759;28;20104;-75
2023/03/25 12:31:28;;;;;;;1.67;0.50;;;4.80;99.90;;;;;;5030410;28;20057;-76
2023/03/25 12:34:09;;;;;;;0.70;0.57;;;4.70;99.90;;;;;;5013725;28;20042;-76
2023/03/25 12:36:53;;;;;;;3.70;0.70;;;4.60;99.90;;;;;;5021640;28;20132;-78
2023/03/25 12:39:44;;;;;;;0.63;0.60;;;4.50;99.90;;;;;;5029176;28;20050;-76
2023/03/25 12:42:32;;;;;;;0.88;0.60;;;4.50;99.90;;;;;;5001414;28;20053;-75
2023/03/25 12:45:19;;;;;;;0.63;0.52;;;4.50;99.90;;;;;;5005758;28;20085;-76
2023/03/25 12:47:55;;;;;;;0.60;0.50;;;4.50;99.90;;;;;;5021828;28;20111;-74
2023/03/25 12:50:37;;;;;;;1.55;0.93;;;4.50;99.90;;;;;;5027859;28;20366;-74
2023/03/25 12:53:30;;;;;;;2.08;1.10;;;4.40;99.90;;;;;;5008370;28;20172;-75
2023/03/25 12:56:13;;;;;;;2.22;0.85;;;4.40;99.90;;;;;;4997314;28;20054;-75
2023/03/25 12:59:06;;;;;;;1.80;0.90;;;4.40;99.90;;;;;;5009260;28;20050;-75
2023/03/25 13:01:42;;;;;;;;;;;4.30;99.90;;;;;;5000293;28;20105;-75
2023/03/25 13:04:32;;;;;;;2.08;0.70;;;4.30;99.90;;;;;;5007776;28;20057;-75
2023/03/25 13:07:03;;;;;;;2.75;0.90;;;4.20;99.90;;;;;;4998150;28;20592;-74
2023/03/25 13:09:36;;;;;;;0.95;0.73;;;4.20;99.90;;;;;;4995011;28;20391;-75
2023/03/25 13:12:11;;;;;;;1.80;0.70;;;4.10;99.90;;;;;;5005596;28;20466;-81
2023/03/25 13:14:43;;;;;;;3.22;0.88;;;4.10;99.90;;;;;;5007730;28;20074;-80
2023/03/25 13:17:25;;;;;;;4.35;0.90;;;4.10;99.90;;;;;;5013836;28;20069;-81
2023/03/25 13:19:58;;;;;;;2.20;0.60;;;4.10;99.90;;;;;;5016673;28;20501;-82
2023/03/25 13:22:33;;;;;;;1.38;0.90;;;4.10;99.90;;;;;;5008126;28;20038;-83
2023/03/25 13:25:04;;;;;;;1.17;0.70;;;4.10;99.90;;;;;;5006425;28;20050;-79
2023/03/25 13:27:34;;;;;;;1.50;0.43;;;4.20;99.90;;;;;;5007086;28;20485;-84
2023/03/25 13:30:06;;;;;;;3.42;0.70;;;4.20;99.90;;;;;;4995842;28;20057;-81
2023/03/25 13:32:46;;;;;;;2.20;0.55;;;4.20;99.90;;;;;;4995047;28;20077;-78
2023/03/25 13:35:18;;;;;;;1.83;0.65;;;4.10;99.90;;;;;;5009633;28;20054;-76
2023/03/25 13:37:51;;;;;;;3.15;0.88;;;4.10;99.90;;;;;;4997654;28;20073;-76
2023/03/25 13:40:26;;;;;;;1.40;0.63;;;4.10;99.90;;;;;;5015681;28;20408;-77
2023/03/25 13:42:59;;;;;;;0.75;0.68;;;4.10;99.90;;;;;;5012047;28;20061;-77